Time;durP1;ratioP1;P1;durP2;ratioP2;P2;SDS_P1;SDS_P2;PMS_P1;PMS_P2;Temp;Humidity;BMP_temperature;BMP_pressure;BME280_temperature;BME280_humidity;BME280_pressure;Samples;Min_cycle;Max_cycle;Signal;HPM_P1;HPM_P2
2022/12/19 00:01:36;;;;;;;31.30;16.93;;;;;;;-9.03;100.00;97422.31;4954553;28;20560;-71
2022/12/19 00:04:07;;;;;;;35.27;19.10;;;;;;;-9.59;100.00;97339.97;4988699;28;20564;-71
2022/12/19 00:06:36;;;;;;;25.50;15.33;;;;;;;-9.64;100.00;97332.03;5038796;28;20424;-71
2022/12/19 00:09:08;;;;;;;27.20;16.17;;;;;;;-9.66;100.00;97321.97;5052207;28;20770;-71
2022/12/19 00:11:37;;;;;;;28.93;13.43;;;;;;;-9.06;100.00;97436.28;5053733;28;20440;-71
2022/12/19 00:14:05;;;;;;;26.63;16.40;;;;;;;-8.83;100.00;97461.03;5054530;28;20435;-71
2022/12/19 00:16:32;;;;;;;31.07;16.50;;;;;;;-9.32;100.00;97382.91;5054819;28;20456;-71
2022/12/19 00:19:00;;;;;;;31.30;17.70;;;;;;;-8.83;100.00;97458.47;5054525;28;20468;-71
2022/12/19 00:21:32;;;;;;;29.20;14.80;;;;;;;-9.02;100.00;97439.28;5053853;28;20481;-71
2022/12/19 00:24:05;;;;;;;23.80;16.37;;;;;;;-8.74;100.00;97490.72;5053627;28;20421;-71
2022/12/19 00:26:48;;;;;;;30.23;17.00;;;;;;;-9.32;100.00;97418.75;5053486;28;20474;-71
2022/12/19 00:29:15;;;;;;;26.23;14.97;;;;;;;-10.07;100.00;97297.69;5054499;28;20441;-71
2022/12/19 00:31:43;;;;;;;21.43;15.80;;;;;;;-9.37;100.00;97404.88;5036889;28;20453;-71
2022/12/19 00:34:09;;;;;;;23.77;15.33;;;;;;;-10.04;100.00;97298.16;5053339;28;20425;-71
2022/12/19 00:36:38;;;;;;;29.87;14.60;;;;;;;-9.09;100.00;97428.94;5054712;28;20425;-71
2022/12/19 00:39:06;;;;;;;27.90;16.10;;;;;;;-9.11;100.00;97420.63;5037303;28;20778;-71
2022/12/19 00:41:36;;;;;;;24.03;16.60;;;;;;;-8.93;100.00;97458.75;5053168;28;20453;-70
2022/12/19 00:44:11;;;;;;;30.17;16.13;;;;;;;-9.36;100.00;97389.34;5052558;28;20508;-70
2022/12/19 00:46:38;;;;;;;38.50;19.10;;;;;;;-8.93;100.00;97445.94;5036409;28;20536;-71
2022/12/19 00:49:05;;;;;;;23.07;15.63;;;;;;;-8.93;100.00;97425.44;5053342;28;20507;-70
2022/12/19 00:51:34;;;;;;;28.37;14.63;;;;;;;-9.20;100.00;97408.91;5052835;28;20469;-70
2022/12/19 00:54:01;;;;;;;28.73;16.73;;;;;;;-9.18;100.00;97383.13;5053196;28;20929;-71
2022/12/19 00:56:34;;;;;;;31.63;16.97;;;;;;;-10.96;100.00;97128.03;5052422;28;20438;-71
2022/12/19 00:59:09;;;;;;;22.70;14.10;;;;;;;-9.47;100.00;97353.94;5040856;28;20975;-71
2022/12/19 01:01:39;;;;;;;20.67;13.27;;;;;;;-9.23;100.00;97414.34;5032816;28;20550;-71
2022/12/19 01:04:12;;;;;;;31.83;16.53;;;;;;;-9.00;100.00;97445.81;5032381;28;20876;-71
2022/12/19 01:06:56;;;;;;;26.80;15.03;;;;;;;-9.01;100.00;97446.00;5022793;28;20908;-70
2022/12/19 01:09:31;;;;;;;21.00;15.50;;;;;;;-9.08;100.00;97443.34;5033752;28;20851;-70
2022/12/19 01:14:43;;;;;;;25.57;15.00;;;;;;;-9.00;100.00;97455.28;5032385;28;20526;-70
2022/12/19 01:17:09;;;;;;;23.90;14.60;;;;;;;-9.75;100.00;97340.09;5015695;28;20934;-70
2022/12/19 01:19:36;;;;;;;28.60;16.97;;;;;;;-9.25;100.00;97434.22;5032141;28;20544;-70
2022/12/19 01:22:11;;;;;;;26.00;18.00;;;;;;;-9.67;100.00;97358.75;5033741;28;20974;-70
2022/12/19 01:24:38;;;;;;;35.63;18.67;;;;;;;-10.13;100.00;97286.41;5015887;28;20481;-70
2022/12/19 01:27:08;;;;;;;35.73;18.60;;;;;;;-9.55;100.00;97392.41;5033279;28;20937;-70
2022/12/19 01:29:34;;;;;;;32.00;18.97;;;;;;;-9.16;100.00;97445.19;5033108;28;20432;-70
2022/12/19 01:32:13;;;;;;;40.50;16.70;;;;;;;-9.67;100.00;97381.78;5033208;28;20438;-70
2022/12/19 01:34:40;;;;;;;24.33;16.73;;;;;;;-9.66;100.00;97383.38;5033515;28;20434;-70
2022/12/19 01:37:07;;;;;;;29.60;16.90;;;;;;;-9.78;100.00;97374.50;5032264;28;20422;-70
2022/12/19 01:39:34;;;;;;;33.00;18.43;;;;;;;-9.31;100.00;97451.06;5018349;28;20448;-71
2022/12/19 01:42:02;;;;;;;32.13;17.33;;;;;;;-9.76;100.00;97380.25;5033944;28;20537;-71
2022/12/19 01:44:30;;;;;;;36.40;19.97;;;;;;;-9.57;100.00;97407.94;5031484;28;20434;-69
2022/12/19 01:46:57;;;;;;;41.67;20.07;;;;;;;-9.66;100.00;97393.59;5031407;28;20460;-70
2022/12/19 01:49:30;;;;;;;29.73;16.00;;;;;;;-9.82;100.00;97334.91;5031853;28;20430;-69
2022/12/19 01:52:00;;;;;;;31.03;17.97;;;;;;;-10.37;100.00;97243.97;5014914;28;20464;-70
2022/12/19 01:54:34;;;;;;;35.23;17.00;;;;;;;-9.43;100.00;97375.66;5031362;28;20458;-70
2022/12/19 01:57:05;;;;;;;35.50;17.30;;;;;;;-9.14;100.00;97402.28;5031288;28;20957;-69
2022/12/19 01:59:36;;;;;;;30.37;19.60;;;;;;;-9.38;100.00;97352.88;5031106;28;20930;-69
2022/12/19 02:02:18;;;;;;;38.27;17.33;;;;;;;-9.33;100.00;97365.19;5012224;28;20483;-69
2022/12/19 02:04:46;;;;;;;24.73;17.03;;;;;;;-9.33;100.00;97344.69;5037333;28;21032;-70
2022/12/19 02:07:17;;;;;;;28.57;14.90;;;;;;;-9.26;100.00;97351.50;5018711;28;20435;-69
2022/12/19 02:09:45;;;;;;;28.60;14.73;;;;;;;-9.33;100.00;97348.06;5032078;28;20422;-69
2022/12/19 02:12:13;;;;;;;32.80;17.63;;;;;;;-8.82;100.00;97413.94;5030851;28;20470;-69
2022/12/19 02:14:40;;;;;;;35.47;17.10;;;;;;;-9.50;100.00;97310.78;5011630;28;20489;-70
2022/12/19 02:17:10;;;;;;;37.83;18.67;;;;;;;-8.95;100.00;97374.38;5025194;28;20477;-70
2022/12/19 02:20:02;;;;;;;32.07;17.20;;;;;;;-8.93;100.00;97384.44;5038828;28;20445;-70
2022/12/19 02:22:29;;;;;;;34.90;17.30;;;;;;;-8.68;100.00;97400.31;5050605;28;20484;-70
2022/12/19 02:25:26;;;;;;;32.77;17.47;;;;;;;-8.76;100.00;97383.28;5052249;28;20464;-70
2022/12/19 02:28:11;;;;;;;33.80;16.60;;;;;;;-8.68;100.00;97400.31;5033933;28;20452;-70
2022/12/19 02:30:51;;;;;;;34.03;17.70;;;;;;;-8.70;100.00;97417.66;5033634;28;20492;-70
2022/12/19 02:33:34;;;;;;;37.23;18.33;;;;;;;-8.43;100.00;97424.69;5034238;28;20521;-70
2022/12/19 02:36:12;;;;;;;23.00;15.40;;;;;;;-9.41;100.00;97276.47;5050882;28;20515;-70
2022/12/19 02:38:45;;;;;;;39.40;19.30;;;;;;;-8.47;100.00;97412.41;5051198;28;20921;-70
2022/12/19 02:41:24;;;;;;;28.60;16.80;;;;;;;-8.87;100.00;97341.94;5050401;28;20876;-70
2022/12/19 02:43:55;;;;;;;30.73;16.47;;;;;;;-9.59;100.00;97238.44;5034183;28;20868;-70
2022/12/19 02:46:27;;;;;;;37.63;16.50;;;;;;;-9.19;100.00;97323.44;5049895;28;20434;-70
2022/12/19 02:48:55;;;;;;;34.33;17.83;;;;;;;-8.49;100.00;97404.91;5031108;28;20533;-70
2022/12/19 02:51:22;;;;;;;28.90;17.27;;;;;;;-9.03;100.00;97341.16;5030293;28;20449;-70
2022/12/19 02:53:49;;;;;;;32.47;17.80;;;;;;;-9.86;100.00;97206.59;5014028;28;20538;-70
2022/12/19 02:56:28;;;;;;;34.03;19.83;;;;;;;-8.45;100.00;97418.16;5030248;28;20446;-70
2022/12/19 02:59:27;;;;;;;37.07;19.50;;;;;;;-9.80;100.00;97246.00;5030189;28;20434;-70
2022/12/19 03:02:16;;;;;;;38.57;20.00;;;;;;;-9.13;100.00;97368.78;5031160;28;20540;-70
2022/12/19 03:04:55;;;;;;;36.13;17.53;;;;;;;-9.54;100.00;97277.06;5035528;28;20499;-70
2022/12/19 03:07:41;;;;;;;40.67;21.73;;;;;;;-9.69;100.00;97278.81;5037035;28;20541;-70
2022/12/19 03:10:26;;;;;;;31.87;17.77;;;;;;;-9.74;100.00;97244.50;5031798;28;20429;-70
2022/12/19 03:12:58;;;;;;;34.93;17.87;;;;;;;-9.16;100.00;97329.97;5030335;28;20827;-70
2022/12/19 03:15:25;;;;;;;36.77;18.50;;;;;;;-9.42;100.00;97299.66;5030673;28;20483;-70
2022/12/19 03:17:59;;;;;;;30.87;16.90;;;;;;;-8.44;100.00;97443.63;5030295;28;20492;-70
2022/12/19 03:20:53;;;;;;;30.13;17.60;;;;;;;-8.43;100.00;97432.38;5031620;28;20438;-70
2022/12/19 03:23:20;;;;;;;32.60;17.40;;;;;;;-8.80;100.00;97387.19;5031610;28;20450;-70
2022/12/19 03:25:51;;;;;;;31.60;17.53;;;;;;;-8.45;100.00;97434.34;5031413;28;20781;-70
2022/12/19 03:28:51;;;;;;;40.30;18.40;;;;;;;-10.01;100.00;97202.44;5029852;28;20442;-70
2022/12/19 03:31:25;;;;;;;26.10;15.23;;;;;;;-8.38;100.00;97435.22;5031331;28;20514;-70
2022/12/19 03:33:59;;;;;;;32.27;18.17;;;;;;;-9.43;100.00;97268.16;5031371;28;20454;-70
2022/12/19 03:36:32;;;;;;;47.30;23.47;;;;;;;-8.75;100.00;97402.81;5031661;28;20468;-70
2022/12/19 03:39:03;;;;;;;38.30;18.50;;;;;;;-9.45;100.00;97270.09;5030013;28;20434;-70
2022/12/19 03:44:29;;;;;;;36.43;18.60;;;;;;;-8.83;100.00;97364.47;5003355;28;20471;-70
2022/12/19 03:47:19;;;;;;;49.63;20.20;;;;;;;-8.40;100.00;97433.81;5032547;28;20533;-70
2022/12/19 03:49:47;;;;;;;43.70;23.97;;;;;;;-9.15;100.00;97306.72;5031906;28;20778;-70
2022/12/19 03:52:32;;;;;;;37.37;20.47;;;;;;;-9.01;100.00;97303.38;5047643;28;20471;-70
2022/12/19 03:55:12;;;;;;;38.00;19.53;;;;;;;-8.89;100.00;97349.81;5029310;28;20438;-70
2022/12/19 03:57:44;;;;;;;32.60;18.07;;;;;;;-9.44;100.00;97273.47;5031168;28;20433;-70
2022/12/19 04:00:15;;;;;;;29.13;18.17;;;;;;;-9.10;100.00;97324.91;5031296;28;20525;-70
2022/12/19 04:02:46;;;;;;;37.40;18.97;;;;;;;-8.36;100.00;97433.28;5039497;28;20507;-70
2022/12/19 04:05:18;;;;;;;33.77;21.10;;;;;;;-8.61;100.00;97397.84;5032429;28;20847;-70
2022/12/19 04:07:46;;;;;;;31.00;17.80;;;;;;;-9.59;100.00;97263.22;5037820;28;20491;-70
2022/12/19 04:10:18;;;;;;;38.37;18.43;;;;;;;-8.96;100.00;97351.47;5036058;28;20513;-70
2022/12/19 04:12:49;;;;;;;37.20;19.57;;;;;;;-9.39;100.00;97294.97;5033293;28;20515;-70
2022/12/19 04:15:16;;;;;;;42.57;18.63;;;;;;;-9.57;100.00;97258.72;5020833;28;20504;-70
2022/12/19 04:17:50;;;;;;;35.60;18.87;;;;;;;-8.67;100.00;97397.59;5015966;28;20442;-70
2022/12/19 04:20:19;;;;;;;33.53;20.57;;;;;;;-8.89;100.00;97351.59;5034745;28;21030;-70
2022/12/19 04:23:11;;;;;;;31.77;20.40;;;;;;;-8.39;100.00;97428.50;5039887;28;20510;-70
2022/12/19 04:25:46;;;;;;;39.53;20.50;;;;;;;-8.30;100.00;97423.22;5022938;28;20446;-70
2022/12/19 04:28:19;;;;;;;38.53;19.60;;;;;;;-9.21;100.00;97275.91;5026407;28;20525;-70
2022/12/19 04:30:47;;;;;;;35.43;18.93;;;;;;;-8.29;100.00;97394.84;5031390;28;20457;-70
2022/12/19 04:33:14;;;;;;;38.10;20.23;;;;;;;-8.56;100.00;97346.84;5037689;28;20552;-70
2022/12/19 04:35:41;;;;;;;47.77;21.03;;;;;;;-9.27;100.00;97247.50;5044861;28;20508;-70
2022/12/19 04:38:08;;;;;;;32.93;19.47;;;;;;;-8.59;100.00;97357.47;5044612;28;20442;-70
2022/12/19 04:40:34;;;;;;;40.00;20.83;;;;;;;-9.04;100.00;97318.31;5036145;28;20488;-70
2022/12/19 04:43:07;;;;;;;37.70;21.30;;;;;;;-8.40;100.00;97413.31;5037582;28;20536;-70
2022/12/19 04:45:33;;;;;;;41.63;22.50;;;;;;;-9.12;100.00;97275.63;5031462;28;20442;-70
2022/12/19 04:48:01;;;;;;;40.43;20.00;;;;;;;-8.60;100.00;97361.00;5037340;28;20442;-70
2022/12/19 04:50:28;;;;;;;32.57;18.83;;;;;;;-8.98;100.00;97299.66;5034707;28;20441;-70
2022/12/19 04:52:55;;;;;;;37.13;20.80;;;;;;;-9.11;100.00;97281.56;5015958;28;20454;-70
2022/12/19 04:55:22;;;;;;;45.03;23.27;;;;;;;-9.06;100.00;97274.16;5038846;28;20463;-70
2022/12/19 04:57:49;;;;;;;34.20;19.60;;;;;;;-8.09;100.00;97430.97;5031996;28;20571;-70
2022/12/19 05:00:16;;;;;;;42.67;21.07;;;;;;;-8.45;100.00;97374.56;5032344;28;20434;-70
2022/12/19 05:02:43;;;;;;;29.20;16.13;;;;;;;-8.09;100.00;97434.34;5034329;28;20474;-70
2022/12/19 05:05:10;;;;;;;36.10;20.33;;;;;;;-8.23;100.00;97386.44;5033488;28;20438;-70
2022/12/19 05:07:36;;;;;;;32.47;17.90;;;;;;;-8.39;100.00;97322.59;5031910;28;20442;-70
2022/12/19 05:10:04;;;;;;;31.93;18.40;;;;;;;-9.06;100.00;97245.97;5032098;28;20437;-70
2022/12/19 05:12:30;;;;;;;31.63;19.47;;;;;;;-8.16;100.00;97353.94;5033320;28;20442;-70
2022/12/19 05:14:57;;;;;;;32.77;17.70;;;;;;;-8.35;100.00;97316.91;5032066;28;20442;-70
2022/12/19 05:17:24;;;;;;;35.67;20.50;;;;;;;-8.17;100.00;97318.22;5033258;28;21083;-70
2022/12/19 05:19:50;;;;;;;35.43;19.90;;;;;;;-8.30;100.00;97289.91;5038821;28;20447;-70
2022/12/19 05:22:17;;;;;;;37.00;19.90;;;;;;;-7.96;100.00;97343.09;5033400;28;20477;-70
2022/12/19 05:24:44;;;;;;;32.83;18.73;;;;;;;-8.95;100.00;97207.06;5032418;28;20533;-69
2022/12/19 05:27:10;;;;;;;34.70;19.27;;;;;;;-8.95;100.00;97202.78;5015438;28;20470;-69
2022/12/19 05:29:37;;;;;;;38.20;18.30;;;;;;;-8.94;100.00;97211.25;5033049;28;20465;-69
2022/12/19 05:32:04;;;;;;;33.57;19.70;;;;;;;-8.97;100.00;97202.13;5031684;28;20505;-69
2022/12/19 05:34:30;;;;;;;35.07;19.00;;;;;;;-8.14;100.00;97333.28;5033192;28;20488;-69
2022/12/19 05:36:57;;;;;;;35.70;17.73;;;;;;;-8.75;100.00;97236.28;5031585;28;20446;-69
2022/12/19 05:39:25;;;;;;;28.00;16.40;;;;;;;-7.90;100.00;97362.88;5015131;28;20475;-69
2022/12/19 05:41:52;;;;;;;33.50;17.63;;;;;;;-8.58;100.00;97252.19;5032611;28;20564;-69
2022/12/19 05:44:19;;;;;;;28.13;16.87;;;;;;;-8.30;100.00;97285.56;5031593;28;20542;-69
2022/12/19 05:46:45;;;;;;;35.53;19.83;;;;;;;-7.78;100.00;97375.03;5032617;28;20469;-69
2022/12/19 05:49:12;;;;;;;29.60;17.27;;;;;;;-8.66;100.00;97234.41;5031488;28;20954;-69
2022/12/19 05:51:39;;;;;;;40.07;18.47;;;;;;;-7.91;100.00;97326.16;5015343;28;20521;-71
2022/12/19 05:54:06;;;;;;;36.87;18.80;;;;;;;-8.21;100.00;97278.56;5040185;28;20457;-70
2022/12/19 05:56:35;;;;;;;32.47;16.87;;;;;;;-8.92;100.00;97167.53;5035248;28;20434;-70
2022/12/19 05:59:02;;;;;;;35.23;18.07;;;;;;;-8.73;100.00;97203.56;5015253;28;20434;-69
2022/12/19 06:01:29;;;;;;;36.93;17.80;;;;;;;-7.77;100.00;97345.81;5031291;28;20535;-71
2022/12/19 06:03:55;;;;;;;32.63;18.73;;;;;;;-7.50;100.00;97353.72;5031118;28;20530;-71
2022/12/19 06:06:25;;;;;;;32.47;20.03;;;;;;;-7.33;100.00;97377.38;5030509;28;20513;-71
2022/12/19 06:08:56;;;;;;;31.27;18.27;;;;;;;-7.90;100.00;97285.91;5031442;28;20438;-71
2022/12/19 06:11:24;;;;;;;31.07;16.50;;;;;;;-7.29;100.00;97370.88;5031288;28;20433;-71
2022/12/19 06:13:51;;;;;;;34.47;19.60;;;;;;;-7.27;100.00;97363.78;5032099;28;20460;-71
2022/12/19 06:16:19;;;;;;;33.60;18.87;;;;;;;-7.14;100.00;97366.44;5031451;28;20523;-71
2022/12/19 06:18:46;;;;;;;32.80;17.40;;;;;;;-7.23;100.00;97344.44;5013780;28;20474;-71
2022/12/19 06:21:16;;;;;;;32.90;16.77;;;;;;;-7.29;100.00;97346.00;5035754;28;21256;-71
2022/12/19 06:23:43;;;;;;;25.03;15.87;;;;;;;-7.13;100.00;97359.53;5051281;28;20476;-70
2022/12/19 06:26:12;;;;;;;29.73;16.77;;;;;;;-7.03;100.00;97360.00;5049667;28;20990;-70
2022/12/19 06:28:45;;;;;;;36.80;19.90;;;;;;;-7.13;100.00;97344.91;5049688;28;20452;-70
2022/12/19 06:31:12;;;;;;;25.47;17.57;;;;;;;-7.10;100.00;97346.28;5051107;28;20425;-70
2022/12/19 06:33:39;;;;;;;32.73;17.53;;;;;;;-6.87;100.00;97367.38;5033048;28;20461;-70
2022/12/19 06:36:10;;;;;;;30.17;19.33;;;;;;;-6.81;100.00;97378.66;5051102;28;20468;-70
2022/12/19 06:38:37;;;;;;;34.63;18.70;;;;;;;-6.99;100.00;97350.91;5049507;28;20925;-70
2022/12/19 06:43:51;;;;;;;26.03;17.57;;;;;;;-7.12;100.00;97350.84;5049608;28;20469;-70
2022/12/19 06:46:19;;;;;;;34.50;18.73;;;;;;;-7.04;100.00;97381.53;5047210;28;20422;-70
2022/12/19 06:48:46;;;;;;;32.07;19.07;;;;;;;-6.99;100.00;97379.97;5029540;28;20528;-70
2022/12/19 06:51:13;;;;;;;27.10;17.20;;;;;;;-6.98;100.00;97378.97;5048685;28;20432;-70
2022/12/19 06:53:40;;;;;;;30.27;16.33;;;;;;;-7.15;100.00;97347.66;5050382;28;20551;-70
2022/12/19 06:56:07;;;;;;;34.10;20.97;;;;;;;-7.06;100.00;97380.94;5012156;28;20535;-70
2022/12/19 06:58:33;;;;;;;29.47;18.17;;;;;;;-7.01;100.00;97399.94;5009882;28;20796;-70
2022/12/19 07:01:00;;;;;;;28.63;18.30;;;;;;;-7.24;100.00;97364.19;5029754;28;20434;-70
2022/12/19 07:03:38;;;;;;;45.10;23.77;;;;;;;-7.39;100.00;97355.78;5029341;28;20974;-70
2022/12/19 07:06:06;;;;;;;29.10;18.70;;;;;;;-7.12;100.00;97385.03;5049331;28;20452;-70
2022/12/19 07:08:33;;;;;;;31.43;19.10;;;;;;;-7.30;100.00;97349.53;5035741;28;20787;-71
2022/12/19 07:10:59;;;;;;;41.77;20.70;;;;;;;-7.49;100.00;97327.88;5045782;28;20443;-72
2022/12/19 07:13:26;;;;;;;35.73;19.63;;;;;;;-7.32;100.00;97341.25;5014757;28;20446;-72
2022/12/19 07:15:56;;;;;;;31.00;17.30;;;;;;;-7.20;100.00;97370.56;5031521;28;20438;-72
2022/12/19 07:18:22;;;;;;;32.27;19.50;;;;;;;-7.29;100.00;97340.84;5030757;28;20480;-72
2022/12/19 07:20:49;;;;;;;35.07;18.40;;;;;;;-7.07;100.00;97387.06;5030656;28;20446;-72
2022/12/19 07:23:19;;;;;;;33.57;19.50;;;;;;;-7.19;100.00;97356.75;5044667;28;21014;-72
2022/12/19 07:25:46;;;;;;;31.10;19.47;;;;;;;-6.94;100.00;97400.78;5050306;28;20452;-72
2022/12/19 07:28:14;;;;;;;37.10;19.73;;;;;;;-6.99;100.00;97385.09;5050737;28;20444;-73
2022/12/19 07:30:40;;;;;;;39.90;19.70;;;;;;;-6.87;100.00;97400.81;5043365;28;20430;-72
2022/12/19 07:33:07;;;;;;;29.20;20.03;;;;;;;-6.94;100.00;97390.50;5031968;28;20520;-72
2022/12/19 07:35:37;;;;;;;37.73;21.00;;;;;;;-6.92;100.00;97382.59;5031905;28;20429;-73
2022/12/19 07:38:05;;;;;;;35.20;21.27;;;;;;;-6.80;100.00;97380.28;5013798;28;20524;-72
2022/12/19 07:40:33;;;;;;;34.67;19.07;;;;;;;-6.66;100.00;97420.50;5031590;28;20467;-72
2022/12/19 07:43:02;;;;;;;33.07;18.00;;;;;;;-6.67;100.00;97418.91;5029730;28;20505;-72
2022/12/19 07:45:29;;;;;;;38.33;19.90;;;;;;;-6.74;100.00;97405.22;5029980;28;20469;-72
2022/12/19 07:47:59;;;;;;;28.03;18.67;;;;;;;-6.77;100.00;97406.41;5013830;28;20446;-72
2022/12/19 07:50:27;;;;;;;28.60;17.70;;;;;;;-6.97;100.00;97356.66;5030318;28;20792;-73
2022/12/19 07:52:54;;;;;;;40.43;20.73;;;;;;;-6.61;100.00;97402.72;5030079;28;20479;-73
2022/12/19 07:55:20;;;;;;;35.03;21.80;;;;;;;-6.73;100.00;97369.03;5037132;28;20548;-73
2022/12/19 07:57:47;;;;;;;27.37;18.33;;;;;;;-6.39;100.00;97386.22;5031730;28;20882;-73
2022/12/19 08:00:14;;;;;;;31.03;18.93;;;;;;;-6.43;100.00;97395.28;5029771;28;20438;-74
2022/12/19 08:02:41;;;;;;;38.00;22.33;;;;;;;-6.34;100.00;97372.75;5029640;28;20592;-73
2022/12/19 08:05:09;;;;;;;29.83;20.20;;;;;;;-6.30;100.00;97397.09;5031579;28;20442;-74
2022/12/19 08:07:35;;;;;;;33.13;19.00;;;;;;;-6.28;100.00;97401.09;5035908;28;20446;-72
2022/12/19 08:10:02;;;;;;;33.47;18.70;;;;;;;-6.14;100.00;97401.94;5049281;28;20930;-72
2022/12/19 08:12:32;;;;;;;31.13;18.90;;;;;;;-6.12;100.00;97402.53;5049072;28;20481;-72
2022/12/19 08:14:59;;;;;;;38.83;21.97;;;;;;;-6.45;100.00;97355.31;5049800;28;20461;-72
2022/12/19 08:17:25;;;;;;;38.63;22.63;;;;;;;-6.33;100.00;97380.28;5032738;28;20434;-72
2022/12/19 08:19:52;;;;;;;36.00;20.97;;;;;;;-6.18;100.00;97366.47;5016099;28;20972;-72
2022/12/19 08:22:19;;;;;;;31.70;17.90;;;;;;;-6.21;100.00;97366.88;5029856;28;20478;-72
2022/12/19 08:24:45;;;;;;;47.23;21.57;;;;;;;-6.12;100.00;97363.13;5028688;28;20965;-72
2022/12/19 08:27:14;;;;;;;37.93;23.10;;;;;;;-6.26;100.00;97342.50;5029403;28;20444;-73
2022/12/19 08:29:40;;;;;;;39.63;20.07;;;;;;;-6.15;100.00;97372.00;5013837;28;20571;-73
2022/12/19 08:32:07;;;;;;;36.67;22.27;;;;;;;-6.08;100.00;97365.13;5015929;28;20458;-73
2022/12/19 08:34:34;;;;;;;36.40;20.97;;;;;;;-6.11;100.00;97355.22;5032032;28;20443;-73
2022/12/19 08:37:00;;;;;;;37.60;21.90;;;;;;;-5.71;100.00;97368.91;5032129;28;20437;-73
2022/12/19 08:39:27;;;;;;;42.37;22.10;;;;;;;-6.11;100.00;97321.75;5033521;28;20506;-72
2022/12/19 08:41:54;;;;;;;31.43;19.87;;;;;;;-5.78;100.00;97352.66;5016669;28;20457;-74
2022/12/19 08:44:20;;;;;;;33.60;18.53;;;;;;;-5.69;100.00;97358.41;5016141;28;20462;-73
2022/12/19 08:46:47;;;;;;;34.77;19.03;;;;;;;-5.62;100.00;97379.00;5016262;28;20469;-74
2022/12/19 08:49:17;;;;;;;44.17;21.03;;;;;;;-5.73;100.00;97378.63;5032562;28;20489;-75
2022/12/19 08:51:45;;;;;;;40.07;25.23;;;;;;;-5.67;100.00;97364.16;5032522;28;20468;-75
2022/12/19 08:54:11;;;;;;;37.67;22.10;;;;;;;-6.06;100.00;97318.59;5045172;28;20433;-74
2022/12/19 08:56:38;;;;;;;43.77;23.13;;;;;;;-5.70;100.00;97343.94;5031913;28;20961;-75
2022/12/19 08:59:10;;;;;;;31.77;19.20;;;;;;;-5.83;100.00;97342.16;5031904;28;20841;-74
2022/12/19 09:01:39;;;;;;;32.67;20.80;;;;;;;-5.85;100.00;97344.13;5031975;28;20433;-74
2022/12/19 09:04:05;;;;;;;31.93;18.17;;;;;;;-5.57;100.00;97350.88;5034789;28;20483;-74
2022/12/19 09:06:52;;;;;;;42.60;23.30;;;;;;;-5.76;100.00;97353.25;5037954;28;20464;-73
2022/12/19 09:09:19;;;;;;;42.87;20.97;;;;;;;-5.42;100.00;97372.88;5051745;28;20524;-72
2022/12/19 09:11:45;;;;;;;38.10;22.67;;;;;;;-5.52;100.00;97377.63;5051499;28;20476;-74
2022/12/19 09:14:13;;;;;;;46.40;23.13;;;;;;;-5.84;100.00;97332.84;5051460;28;20430;-74
2022/12/19 09:16:46;;;;;;;39.57;21.93;;;;;;;-5.65;100.00;97344.94;5050523;28;20949;-72
2022/12/19 09:19:15;;;;;;;50.03;23.20;;;;;;;-5.39;100.00;97371.69;5031467;28;20445;-72
2022/12/19 09:21:42;;;;;;;44.13;21.20;;;;;;;-5.31;100.00;97342.34;5032450;28;20453;-73
2022/12/19 09:24:11;;;;;;;33.03;21.03;;;;;;;-5.24;100.00;97366.31;5035026;28;20996;-73
2022/12/19 09:26:38;;;;;;;46.00;25.63;;;;;;;-5.25;100.00;97349.28;5051141;28;20528;-73
2022/12/19 09:29:06;;;;;;;40.97;24.90;;;;;;;-5.11;100.00;97359.34;5051401;28;20448;-72
2022/12/19 09:31:47;;;;;;;46.70;25.60;;;;;;;-5.14;100.00;97366.72;5048324;28;21024;-73
2022/12/19 09:34:21;;;;;;;47.07;25.17;;;;;;;-5.08;100.00;97355.59;5032509;28;20894;-73
2022/12/19 09:36:51;;;;;;;50.33;26.90;;;;;;;-5.16;100.00;97333.41;5037325;28;20490;-73
2022/12/19 09:39:18;;;;;;;48.30;26.10;;;;;;;-5.00;100.00;97334.75;5051041;28;20528;-73
2022/12/19 09:42:15;;;;;;;49.13;29.50;;;;;;;-5.06;100.00;97338.94;5030691;28;20849;-73
2022/12/19 09:44:48;;;;;;;49.60;24.97;;;;;;;-4.86;100.00;97351.78;5036060;28;20432;-73
2022/12/19 09:47:30;;;;;;;39.03;26.00;;;;;;;-4.80;100.00;97350.97;5039260;28;20797;-73
2022/12/19 09:49:59;;;;;;;50.83;24.50;;;;;;;-4.77;100.00;97344.63;5030598;28;21083;-73
2022/12/19 09:52:32;;;;;;;42.53;25.10;;;;;;;-4.78;100.00;97343.81;5030593;28;20465;-73
2022/12/19 09:55:09;;;;;;;42.03;25.37;;;;;;;-4.49;100.00;97363.16;5038028;28;20521;-73
2022/12/19 09:57:47;;;;;;;56.40;29.47;;;;;;;-4.63;100.00;97327.31;5030626;28;20463;-73
2022/12/19 10:00:18;;;;;;;47.97;26.60;;;;;;;-4.30;100.00;97351.16;5041816;28;20420;-73
2022/12/19 10:02:56;;;;;;;48.43;25.43;;;;;;;-4.32;100.00;97349.78;5031436;28;20877;-73
2022/12/19 10:05:39;;;;;;;40.37;24.40;;;;;;;-4.47;100.00;97325.03;5044397;28;20532;-72
2022/12/19 10:08:37;;;;;;;39.83;22.47;;;;;;;-4.17;100.00;97340.78;5051694;28;20427;-72
2022/12/19 10:11:57;;;;;;;38.57;22.63;;;;;;;-4.22;100.00;97312.22;5020770;28;20418;-72
2022/12/19 10:14:47;;;;;;;41.30;22.50;;;;;;;-4.08;100.00;97336.16;5040356;28;20429;-73
2022/12/19 10:17:35;;;;;;;43.60;23.20;;;;;;;-3.94;100.00;97332.50;5013740;28;20445;-73
2022/12/19 10:20:16;;;;;;;42.00;22.40;;;;;;;-3.87;100.00;97340.22;5031616;28;20415;-73
2022/12/19 10:22:58;;;;;;;41.70;21.70;;;;;;;-4.08;100.00;97336.16;5030020;28;20867;-73
2022/12/19 10:25:30;;;;;;;40.97;24.20;;;;;;;-4.27;100.00;97312.06;5048106;28;20502;-73
2022/12/19 10:27:59;;;;;;;40.47;22.10;;;;;;;-4.08;100.00;97336.16;5049948;28;20417;-72
2022/12/19 10:30:31;;;;;;;33.97;20.30;;;;;;;-4.20;100.00;97299.09;5049822;28;20438;-73
2022/12/19 10:33:25;;;;;;;45.10;23.47;;;;;;;-4.03;100.00;97332.94;5049816;28;20574;-73
2022/12/19 10:35:56;;;;;;;37.80;20.50;;;;;;;-4.19;100.00;97322.13;5049749;28;20467;-73
2022/12/19 10:38:58;;;;;;;46.67;26.20;;;;;;;-4.00;100.00;97317.06;5045836;28;20424;-73
2022/12/19 10:41:28;;;;;;;42.30;24.17;;;;;;;-3.98;100.00;97313.25;5013394;28;20968;-73
2022/12/19 10:44:06;;;;;;;34.60;21.33;;;;;;;-4.06;100.00;97323.84;5023916;28;20846;-73
2022/12/19 10:46:46;;;;;;;41.60;24.00;;;;;;;-4.41;100.00;97248.59;5045087;28;20461;-73
2022/12/19 10:49:20;;;;;;;39.93;21.13;;;;;;;-3.97;100.00;97314.06;5031332;28;20943;-73
2022/12/19 10:51:57;;;;;;;34.03;18.93;;;;;;;-3.95;100.00;97319.78;5030914;28;20506;-73
2022/12/19 10:54:25;;;;;;;36.67;21.77;;;;;;;-3.94;100.00;97311.03;5037959;28;20457;-73
2022/12/19 10:57:17;;;;;;;37.27;21.27;;;;;;;-3.82;100.00;97324.88;5029742;28;20463;-73
2022/12/19 11:00:04;;;;;;;43.70;25.20;;;;;;;-3.59;100.00;97322.50;5018897;28;20467;-73
2022/12/19 11:02:37;;;;;;;39.07;23.47;;;;;;;-3.59;100.00;97319.94;5029851;28;20457;-73
2022/12/19 11:05:19;;;;;;;33.07;20.90;;;;;;;-3.79;100.00;97321.88;5019301;28;20462;-73
2022/12/19 11:08:05;;;;;;;34.37;21.30;;;;;;;-3.51;100.00;97310.31;5050321;28;20417;-73
2022/12/19 11:10:39;;;;;;;48.47;22.77;;;;;;;-3.47;100.00;97295.97;5049281;28;20982;-72
2022/12/19 11:13:28;;;;;;;42.70;25.70;;;;;;;-3.47;100.00;97273.50;5050767;28;20437;-72
2022/12/19 11:16:32;;;;;;;39.47;22.80;;;;;;;-3.39;100.00;97301.66;5035585;28;20456;-72
2022/12/19 11:19:30;;;;;;;39.37;24.17;;;;;;;-3.33;100.00;97302.63;5050777;28;20765;-73
2022/12/19 11:22:23;;;;;;;39.90;24.37;;;;;;;-3.27;100.00;97302.53;5049525;28;21029;-73
2022/12/19 11:25:20;;;;;;;44.20;22.30;;;;;;;-3.35;100.00;97273.56;5019705;28;20814;-72
2022/12/19 11:28:43;;;;;;;39.83;23.97;;;;;;;-3.15;100.00;97286.31;5029743;28;20945;-73
2022/12/19 11:31:33;;;;;;;36.43;23.40;;;;;;;-3.43;100.00;97258.38;5029398;28;20436;-73
2022/12/19 11:34:23;;;;;;;41.60;22.27;;;;;;;-3.18;100.00;97259.09;5030551;28;20433;-73
2022/12/19 11:37:03;;;;;;;42.00;23.50;;;;;;;-3.16;100.00;97271.81;5034094;28;20439;-72
2022/12/19 11:39:46;;;;;;;34.63;21.20;;;;;;;-3.19;100.00;97234.25;5050233;28;20431;-73
2022/12/19 11:42:22;;;;;;;43.37;24.23;;;;;;;-3.00;100.00;97277.19;5029036;28;20475;-73